createdAt,value
2023-05-19T00:00:10.576Z,9.60
2023-05-19T00:02:44.121Z,9.60
2023-05-19T00:05:15.084Z,9.50
2023-05-19T00:07:47.139Z,9.50
2023-05-19T00:10:16.890Z,9.50
2023-05-19T00:12:46.146Z,9.50
2023-05-19T00:15:15.378Z,9.50
2023-05-19T00:17:45.438Z,9.40
2023-05-19T00:20:14.527Z,9.40
2023-05-19T00:22:44.071Z,9.40
2023-05-19T00:25:12.294Z,9.40
2023-05-19T00:27:40.458Z,9.30
2023-05-19T00:30:10.232Z,9.30
2023-05-19T00:32:40.902Z,9.30
2023-05-19T00:35:11.475Z,9.30
2023-05-19T00:37:39.610Z,9.30
2023-05-19T00:40:09.253Z,9.20
2023-05-19T00:42:37.433Z,9.20
2023-05-19T00:45:06.382Z,9.20
2023-05-19T00:47:35.437Z,9.10
2023-05-19T00:50:03.721Z,9.10
2023-05-19T00:52:33.353Z,9.10
2023-05-19T00:55:01.811Z,9.00
2023-05-19T00:57:30.077Z,9.00
2023-05-19T00:59:58.296Z,9.00
2023-05-19T01:02:29.807Z,9.00
2023-05-19T01:04:58.986Z,8.90
2023-05-19T01:07:27.348Z,9.00
2023-05-19T01:09:57.781Z,9.00
2023-05-19T01:12:26.464Z,8.90
2023-05-19T01:14:54.636Z,8.90
2023-05-19T01:17:30.552Z,8.80
2023-05-19T01:20:08.001Z,8.70
2023-05-19T01:23:03.008Z,8.60
2023-05-19T01:26:14.199Z,8.70
2023-05-19T01:29:00.139Z,8.80
2023-05-19T01:31:30.029Z,8.80
2023-05-19T01:33:59.568Z,8.80
2023-05-19T01:36:28.868Z,8.70
2023-05-19T01:39:00.010Z,8.70
2023-05-19T01:41:29.531Z,8.60
2023-05-19T01:43:59.187Z,8.60
2023-05-19T01:46:27.433Z,8.70
2023-05-19T01:48:59.824Z,8.60
2023-05-19T01:51:28.200Z,8.60
2023-05-19T01:53:56.432Z,8.60
2023-05-19T01:56:32.622Z,8.60
2023-05-19T01:59:08.310Z,8.60
2023-05-19T02:01:45.298Z,8.60
2023-05-19T02:04:21.626Z,8.60
2023-05-19T02:06:56.981Z,8.60
2023-05-19T02:09:31.281Z,8.60
2023-05-19T02:12:04.819Z,8.60
2023-05-19T02:14:41.132Z,8.60
2023-05-19T02:17:11.815Z,8.50
2023-05-19T02:19:41.401Z,8.50
2023-05-19T02:22:09.548Z,8.50
2023-05-19T02:24:37.818Z,8.50
2023-05-19T02:27:06.566Z,8.50
2023-05-19T02:29:35.500Z,8.60
2023-05-19T02:32:03.643Z,8.60
2023-05-19T02:34:31.748Z,8.50
2023-05-19T02:37:01.296Z,8.50
2023-05-19T02:39:34.869Z,8.50
2023-05-19T02:42:03.339Z,8.50
2023-05-19T02:44:31.472Z,8.60
2023-05-19T02:46:59.574Z,8.50
2023-05-19T02:49:27.703Z,8.60
2023-05-19T02:51:55.844Z,8.70
2023-05-19T02:54:26.107Z,8.80
2023-05-19T02:56:54.253Z,8.80
2023-05-19T02:59:25.414Z,8.80
2023-05-19T03:01:56.722Z,8.70
2023-05-19T03:04:27.490Z,8.70
2023-05-19T03:06:55.694Z,8.80
2023-05-19T03:09:25.315Z,8.80
2023-05-19T03:11:53.857Z,8.70
2023-05-19T03:14:24.055Z,8.80
2023-05-19T03:16:52.858Z,8.70
2023-05-19T03:19:21.215Z,8.70
2023-05-19T03:21:49.707Z,8.70
2023-05-19T03:24:18.090Z,8.60
2023-05-19T03:26:47.891Z,8.70
2023-05-19T03:29:16.411Z,8.70
2023-05-19T03:31:44.796Z,8.70
2023-05-19T03:34:14.742Z,8.70
2023-05-19T03:36:43.081Z,8.70
2023-05-19T03:39:15.416Z,8.70
2023-05-19T03:41:43.837Z,8.80
2023-05-19T03:44:13.407Z,8.90
2023-05-19T03:46:42.024Z,8.90
2023-05-19T03:49:28.497Z,9.00
2023-05-19T03:51:59.182Z,9.00
2023-05-19T03:54:59.492Z,9.10
2023-05-19T03:57:29.662Z,9.30
2023-05-19T03:59:59.162Z,9.50
2023-05-19T04:02:28.039Z,9.60
2023-05-19T04:04:56.659Z,9.90
2023-05-19T04:07:24.859Z,10.10
2023-05-19T04:09:53.034Z,10.10
2023-05-19T04:12:21.825Z,10.40
2023-05-19T04:14:49.898Z,10.50
2023-05-19T04:17:19.311Z,10.60
2023-05-19T04:19:47.389Z,10.90
2023-05-19T04:22:15.732Z,10.80
2023-05-19T04:24:43.793Z,11.00
2023-05-19T04:27:12.782Z,10.80
2023-05-19T04:29:41.788Z,10.70
2023-05-19T04:32:10.699Z,10.60
2023-05-19T04:34:45.088Z,10.70
2023-05-19T04:37:17.266Z,10.40
2023-05-19T04:39:46.461Z,10.50
2023-05-19T04:42:19.529Z,10.40
2023-05-19T04:44:49.315Z,10.50
2023-05-19T04:47:18.105Z,11.00
2023-05-19T04:49:48.246Z,11.00
2023-05-19T04:52:21.682Z,11.10
2023-05-19T04:54:49.980Z,11.20
2023-05-19T04:57:18.311Z,11.20
2023-05-19T04:59:47.232Z,11.20
2023-05-19T05:02:16.828Z,11.50
2023-05-19T05:04:46.610Z,11.70
2023-05-19T05:07:16.550Z,12.10
2023-05-19T05:09:44.774Z,12.40
2023-05-19T05:12:15.411Z,12.40
2023-05-19T05:14:44.038Z,12.50
2023-05-19T05:17:13.759Z,12.50
2023-05-19T05:19:43.766Z,12.50
2023-05-19T05:22:12.515Z,12.40
2023-05-19T05:24:43.665Z,12.40
2023-05-19T05:27:12.039Z,12.40
2023-05-19T05:29:41.139Z,11.90
2023-05-19T05:32:10.858Z,11.50
2023-05-19T05:34:41.039Z,11.40
2023-05-19T05:37:09.260Z,11.40
2023-05-19T05:39:38.008Z,11.30
2023-05-19T05:42:09.130Z,11.40
2023-05-19T05:44:37.449Z,11.30
2023-05-19T05:47:07.800Z,11.40
2023-05-19T05:49:38.039Z,11.60
2023-05-19T05:52:07.685Z,11.90
2023-05-19T05:54:47.356Z,12.10
2023-05-19T05:57:20.339Z,12.50
2023-05-19T05:59:48.773Z,13.40
2023-05-19T06:02:17.837Z,14.10
2023-05-19T06:04:46.002Z,13.80
2023-05-19T06:07:14.286Z,14.10
2023-05-19T06:09:42.524Z,13.90
2023-05-19T06:12:11.545Z,13.30
2023-05-19T06:14:46.652Z,14.20
2023-05-19T06:17:26.272Z,15.80
2023-05-19T06:19:55.391Z,15.60
2023-05-19T06:22:23.565Z,15.60
2023-05-19T06:24:51.948Z,15.80
2023-05-19T06:27:21.085Z,16.20
2023-05-19T06:29:51.848Z,17.30
2023-05-19T06:32:21.663Z,17.90
2023-05-19T06:34:54.013Z,17.60
2023-05-19T06:37:23.776Z,17.30
2023-05-19T06:39:53.216Z,16.80
2023-05-19T06:42:25.171Z,17.00
2023-05-19T06:45:11.572Z,17.70
2023-05-19T06:47:41.382Z,17.70
2023-05-19T06:50:11.153Z,17.60
2023-05-19T06:52:42.595Z,17.00
2023-05-19T06:55:11.117Z,17.60
2023-05-19T06:57:41.339Z,17.60
2023-05-19T07:00:14.492Z,17.90
2023-05-19T07:02:48.211Z,17.00
2023-05-19T07:05:16.936Z,17.10
2023-05-19T07:07:49.893Z,17.20
2023-05-19T07:10:22.384Z,17.30
2023-05-19T07:12:51.456Z,17.50
2023-05-19T07:15:23.185Z,17.50
2023-05-19T07:17:51.666Z,17.60
2023-05-19T07:20:19.939Z,17.20
2023-05-19T07:22:50.633Z,17.60
2023-05-19T07:25:18.861Z,17.30
2023-05-19T07:27:48.658Z,17.50
2023-05-19T07:30:16.865Z,17.50
2023-05-19T07:32:46.352Z,17.60
2023-05-19T07:35:14.554Z,18.30
2023-05-19T07:37:42.820Z,18.60
2023-05-19T07:40:11.217Z,19.60
2023-05-19T07:42:39.425Z,19.60
2023-05-19T07:45:08.468Z,18.10
2023-05-19T07:47:36.709Z,17.90
2023-05-19T07:50:07.189Z,18.60
2023-05-19T07:52:35.355Z,20.00
2023-05-19T07:55:03.556Z,20.80
2023-05-19T07:57:32.388Z,20.70
2023-05-19T08:00:00.557Z,20.00
2023-05-19T08:02:28.988Z,19.60
2023-05-19T08:04:57.332Z,20.20
2023-05-19T08:07:26.861Z,20.00
2023-05-19T08:09:55.126Z,19.20
2023-05-19T08:12:23.189Z,18.70
2023-05-19T08:14:51.239Z,17.90
2023-05-19T08:17:19.411Z,17.90
2023-05-19T08:19:47.558Z,17.90
2023-05-19T08:22:18.436Z,18.00
2023-05-19T08:24:49.678Z,18.00
2023-05-19T08:27:17.852Z,18.00
2023-05-19T08:29:46.019Z,18.10
2023-05-19T08:32:14.352Z,17.50
2023-05-19T08:34:42.552Z,17.10
2023-05-19T08:37:10.973Z,17.00
2023-05-19T08:39:39.248Z,17.00
2023-05-19T08:42:09.953Z,17.60
2023-05-19T08:44:39.928Z,17.90
2023-05-19T08:47:13.763Z,17.70
2023-05-19T08:49:45.650Z,17.00
2023-05-19T08:52:23.344Z,16.80
2023-05-19T08:54:55.817Z,16.50
2023-05-19T08:57:26.512Z,16.50
2023-05-19T08:59:56.725Z,16.40
2023-05-19T09:02:25.372Z,17.20
2023-05-19T09:04:54.366Z,17.70
2023-05-19T09:07:25.494Z,17.50
2023-05-19T09:09:53.672Z,17.40
2023-05-19T09:12:22.168Z,17.80
2023-05-19T09:14:54.515Z,17.70
2023-05-19T09:17:22.836Z,17.70
2023-05-19T09:19:51.292Z,17.60
2023-05-19T09:22:20.598Z,18.10
2023-05-19T09:24:49.042Z,17.90
2023-05-19T09:27:23.517Z,17.60
2023-05-19T09:29:53.021Z,17.90
2023-05-19T09:32:28.580Z,18.30
2023-05-19T09:34:57.128Z,18.30
2023-05-19T09:37:25.823Z,18.30
2023-05-19T09:39:55.170Z,17.70
2023-05-19T09:42:27.737Z,17.70
2023-05-19T09:45:02.564Z,17.70
2023-05-19T09:47:36.102Z,17.60
2023-05-19T09:50:06.551Z,17.50
2023-05-19T09:52:38.679Z,17.80
2023-05-19T09:55:10.660Z,17.50
2023-05-19T09:57:40.186Z,17.90
2023-05-19T10:00:15.350Z,18.20
2023-05-19T10:02:45.188Z,18.50
2023-05-19T10:05:17.343Z,18.50
2023-05-19T10:07:48.476Z,18.70
2023-05-19T10:10:17.206Z,18.20
2023-05-19T10:12:45.792Z,18.00
2023-05-19T10:15:22.193Z,18.30
2023-05-19T10:17:52.104Z,18.30
2023-05-19T10:20:20.321Z,18.50
2023-05-19T10:22:48.647Z,18.30
2023-05-19T10:25:20.094Z,18.40
2023-05-19T10:27:53.146Z,18.60
2023-05-19T10:30:28.228Z,18.80
2023-05-19T10:32:58.317Z,19.10
2023-05-19T10:35:57.992Z,18.80
2023-05-19T10:38:33.503Z,18.90
2023-05-19T10:41:06.896Z,18.80
2023-05-19T10:43:55.409Z,18.90
2023-05-19T10:46:27.520Z,18.90
2023-05-19T10:48:56.012Z,19.20
2023-05-19T10:51:31.494Z,19.00
2023-05-19T10:53:59.921Z,18.80
2023-05-19T10:56:33.815Z,18.40
2023-05-19T10:59:02.229Z,18.00
2023-05-19T11:01:34.187Z,18.50
2023-05-19T11:04:07.484Z,18.70
2023-05-19T11:06:37.718Z,18.90
2023-05-19T11:09:13.781Z,18.90
2023-05-19T11:11:47.742Z,19.40
2023-05-19T11:14:17.988Z,19.70
2023-05-19T11:16:50.444Z,19.90
2023-05-19T11:19:26.859Z,19.50
2023-05-19T11:21:55.969Z,19.40
2023-05-19T11:24:41.478Z,20.00
2023-05-19T11:27:23.822Z,19.70
2023-05-19T11:29:52.290Z,19.40
2023-05-19T11:32:24.160Z,19.40
2023-05-19T11:34:53.221Z,19.40
2023-05-19T11:37:21.481Z,19.90
2023-05-19T11:39:50.240Z,19.50
2023-05-19T11:42:18.380Z,19.20
2023-05-19T11:44:46.804Z,19.40
2023-05-19T11:47:15.674Z,19.20
2023-05-19T11:49:46.650Z,19.50
2023-05-19T11:52:15.521Z,19.60
2023-05-19T11:54:43.632Z,19.40
2023-05-19T11:57:14.647Z,19.50
2023-05-19T11:59:45.586Z,19.70
2023-05-19T12:02:22.343Z,19.40
2023-05-19T12:04:52.548Z,19.00
2023-05-19T12:07:23.390Z,19.10
2023-05-19T12:09:52.840Z,19.00
2023-05-19T12:12:22.394Z,19.50
2023-05-19T12:14:52.625Z,19.70
2023-05-19T12:17:23.782Z,19.80
2023-05-19T12:19:53.450Z,19.90
2023-05-19T12:22:21.718Z,19.90
2023-05-19T12:24:51.671Z,19.60
2023-05-19T12:27:21.689Z,19.90
2023-05-19T12:29:53.222Z,19.70
2023-05-19T12:32:25.418Z,19.60
2023-05-19T12:34:57.101Z,19.80
2023-05-19T12:37:29.914Z,19.40
2023-05-19T12:39:58.535Z,19.80
2023-05-19T12:42:31.335Z,20.00
2023-05-19T12:45:02.940Z,19.20
2023-05-19T12:47:33.805Z,19.60
2023-05-19T12:50:09.138Z,19.20
2023-05-19T12:52:44.756Z,19.60
2023-05-19T12:55:14.133Z,19.50
2023-05-19T12:57:44.242Z,19.10
2023-05-19T13:00:20.822Z,19.30
2023-05-19T13:02:59.712Z,19.50
2023-05-19T13:05:30.713Z,19.70
2023-05-19T13:08:00.191Z,19.90
2023-05-19T13:10:29.437Z,19.60
2023-05-19T13:13:00.001Z,19.90
2023-05-19T13:15:31.731Z,20.00
2023-05-19T13:18:01.034Z,20.30
2023-05-19T13:20:31.084Z,20.60
2023-05-19T13:22:59.563Z,20.60
2023-05-19T13:25:28.223Z,20.90
2023-05-19T13:27:59.384Z,20.80
2023-05-19T13:30:28.068Z,20.20
2023-05-19T13:32:56.250Z,20.20
2023-05-19T13:35:24.610Z,19.90
2023-05-19T13:37:54.024Z,19.20
2023-05-19T13:40:23.848Z,19.10
2023-05-19T13:42:52.178Z,19.20
2023-05-19T13:45:20.315Z,19.50
2023-05-19T13:47:48.540Z,19.20
2023-05-19T13:50:16.648Z,18.70
2023-05-19T13:52:44.981Z,18.30
2023-05-19T13:55:14.548Z,18.50
2023-05-19T13:57:44.142Z,18.70
2023-05-19T14:00:13.185Z,18.60
2023-05-19T14:02:42.323Z,18.30
2023-05-19T14:05:10.708Z,18.40
2023-05-19T14:07:38.924Z,18.70
2023-05-19T14:10:08.552Z,19.00
2023-05-19T14:12:55.016Z,19.10
2023-05-19T14:15:26.262Z,19.00
2023-05-19T14:17:54.538Z,18.50
2023-05-19T14:20:22.806Z,18.50
2023-05-19T14:22:50.984Z,18.50
2023-05-19T14:25:19.549Z,19.00
2023-05-19T14:27:49.034Z,19.20
2023-05-19T14:30:17.203Z,19.60
2023-05-19T14:32:45.451Z,19.40
2023-05-19T14:35:13.542Z,18.90
2023-05-19T14:37:41.638Z,19.00
2023-05-19T14:40:10.732Z,18.70
2023-05-19T14:42:38.940Z,18.80
2023-05-19T14:45:10.654Z,18.90
2023-05-19T14:47:41.327Z,18.70
2023-05-19T14:50:09.887Z,18.60
2023-05-19T14:52:37.990Z,18.40
2023-05-19T14:55:06.761Z,18.60
2023-05-19T14:57:35.085Z,18.90
2023-05-19T15:00:03.188Z,19.20
2023-05-19T15:02:32.823Z,19.10
2023-05-19T15:05:01.176Z,19.10
2023-05-19T15:07:30.407Z,18.50
2023-05-19T15:10:01.729Z,18.00
2023-05-19T15:12:30.124Z,18.00
2023-05-19T15:14:58.488Z,18.10
2023-05-19T15:17:26.727Z,17.90
2023-05-19T15:19:56.675Z,18.10
2023-05-19T15:22:24.804Z,17.90
2023-05-19T15:24:52.896Z,18.00
2023-05-19T15:27:21.198Z,17.70
2023-05-19T15:29:49.249Z,17.60
2023-05-19T15:32:17.405Z,17.70
2023-05-19T15:34:45.693Z,17.80
2023-05-19T15:37:15.408Z,18.00
2023-05-19T15:39:43.704Z,18.10
2023-05-19T15:42:12.039Z,18.40
2023-05-19T15:44:40.288Z,18.40
2023-05-19T15:47:08.456Z,18.50
2023-05-19T15:49:36.540Z,18.30
2023-05-19T15:52:05.130Z,17.90
2023-05-19T15:54:34.604Z,17.60
2023-05-19T15:57:02.654Z,17.40
2023-05-19T15:59:31.122Z,17.50
2023-05-19T16:01:59.446Z,17.60
2023-05-19T16:04:27.626Z,17.70
2023-05-19T16:06:55.988Z,17.80
2023-05-19T16:09:24.121Z,17.70
2023-05-19T16:11:53.744Z,17.50
2023-05-19T16:14:22.612Z,17.60
2023-05-19T16:16:51.051Z,17.60
2023-05-19T16:19:21.922Z,17.50
2023-05-19T16:21:50.160Z,17.50
2023-05-19T16:24:18.376Z,17.60
2023-05-19T16:26:48.556Z,17.80
2023-05-19T16:29:18.054Z,17.70
2023-05-19T16:31:46.281Z,17.50
2023-05-19T16:34:14.576Z,17.40
2023-05-19T16:36:42.784Z,17.50
2023-05-19T16:39:10.893Z,17.40
2023-05-19T16:41:39.127Z,17.20
2023-05-19T16:44:08.386Z,17.20
2023-05-19T16:46:37.971Z,17.40
2023-05-19T16:49:07.317Z,17.40
2023-05-19T16:51:35.638Z,17.30
2023-05-19T16:54:04.110Z,17.30
2023-05-19T16:56:32.270Z,17.10
2023-05-19T16:59:00.471Z,17.10
2023-05-19T17:01:28.676Z,17.10
2023-05-19T17:03:58.284Z,17.00
2023-05-19T17:06:26.433Z,17.10
2023-05-19T17:08:54.695Z,17.10
2023-05-19T17:11:22.807Z,17.10
2023-05-19T17:13:50.977Z,17.10
2023-05-19T17:16:19.093Z,17.10
2023-05-19T17:18:48.117Z,17.00
2023-05-19T17:21:17.943Z,17.00
2023-05-19T17:23:46.530Z,16.90
2023-05-19T17:26:15.802Z,16.80
2023-05-19T17:28:44.028Z,16.80
2023-05-19T17:31:13.097Z,16.80
2023-05-19T17:33:41.954Z,16.70
2023-05-19T17:36:12.762Z,16.70
2023-05-19T17:38:42.462Z,16.70
2023-05-19T17:41:14.213Z,16.70
2023-05-19T17:43:42.890Z,16.70
2023-05-19T17:46:13.516Z,16.80
2023-05-19T17:48:41.771Z,16.70
2023-05-19T17:51:10.143Z,16.80
2023-05-19T17:53:38.872Z,16.80
2023-05-19T17:56:11.223Z,16.80
2023-05-19T17:58:41.250Z,16.70
2023-05-19T18:01:10.104Z,16.60
2023-05-19T18:03:38.810Z,16.40
2023-05-19T18:06:08.466Z,16.40
2023-05-19T18:08:38.482Z,16.40
2023-05-19T18:11:08.698Z,16.30
2023-05-19T18:13:37.561Z,16.30
2023-05-19T18:16:05.992Z,16.20
2023-05-19T18:18:34.481Z,16.10
2023-05-19T18:21:05.154Z,16.10
2023-05-19T18:23:33.395Z,16.10
2023-05-19T18:26:02.008Z,16.00
2023-05-19T18:28:31.513Z,15.90
2023-05-19T18:31:00.871Z,15.90
2023-05-19T18:33:31.048Z,15.90
2023-05-19T18:36:00.103Z,15.80
2023-05-19T18:38:28.622Z,15.80
2023-05-19T18:40:57.741Z,15.70
2023-05-19T18:43:25.969Z,15.70
2023-05-19T18:45:58.964Z,15.60
2023-05-19T18:48:27.539Z,15.60
2023-05-19T18:50:55.809Z,15.60
2023-05-19T18:53:24.004Z,15.50
2023-05-19T18:55:52.398Z,15.40
2023-05-19T18:58:20.576Z,15.40
2023-05-19T19:00:48.963Z,15.30
2023-05-19T19:03:19.615Z,15.30
2023-05-19T19:05:54.277Z,15.20
2023-05-19T19:08:24.665Z,15.10
2023-05-19T19:10:54.735Z,15.10
2023-05-19T19:13:23.367Z,15.10
2023-05-19T19:15:54.695Z,15.00
2023-05-19T19:18:26.043Z,14.90
2023-05-19T19:20:54.815Z,14.90
2023-05-19T19:23:22.998Z,14.90
2023-05-19T19:25:51.238Z,14.80
2023-05-19T19:28:19.413Z,14.80
2023-05-19T19:30:47.601Z,14.80
2023-05-19T19:33:16.034Z,14.70
2023-05-19T19:35:47.348Z,14.70
2023-05-19T19:38:15.724Z,14.60
2023-05-19T19:40:43.941Z,14.60
2023-05-19T19:43:12.490Z,14.50
2023-05-19T19:45:41.594Z,14.50
2023-05-19T19:48:09.934Z,14.40
2023-05-19T19:50:38.230Z,14.40
2023-05-19T19:53:08.828Z,14.40
2023-05-19T19:55:37.046Z,14.30
2023-05-19T19:58:05.195Z,14.20
2023-05-19T20:00:33.823Z,14.20
2023-05-19T20:03:05.548Z,14.20
2023-05-19T20:05:34.250Z,14.20
2023-05-19T20:08:02.418Z,14.20
2023-05-19T20:10:32.104Z,14.20
2023-05-19T20:13:00.323Z,14.10
2023-05-19T20:15:28.496Z,14.10
2023-05-19T20:17:56.744Z,14.10
2023-05-19T20:20:25.072Z,14.10
2023-05-19T20:22:53.303Z,14.10
2023-05-19T20:25:21.741Z,14.00
2023-05-19T20:27:51.362Z,14.00
2023-05-19T20:30:19.679Z,13.90
2023-05-19T20:32:47.840Z,13.90
2023-05-19T20:35:16.067Z,13.90
2023-05-19T20:37:49.289Z,14.00
2023-05-19T20:40:18.569Z,14.00
2023-05-19T20:42:50.635Z,14.00
2023-05-19T20:45:19.005Z,14.00
2023-05-19T20:47:47.278Z,14.00
2023-05-19T20:50:15.668Z,13.90
2023-05-19T20:52:43.806Z,13.90
2023-05-19T20:55:12.245Z,13.90
2023-05-19T20:57:40.464Z,13.80
2023-05-19T21:00:11.486Z,13.80
2023-05-19T21:02:39.714Z,13.80
2023-05-19T21:05:08.545Z,13.80
2023-05-19T21:07:39.247Z,13.70
2023-05-19T21:10:08.933Z,13.60
2023-05-19T21:12:37.145Z,13.50
2023-05-19T21:15:05.957Z,13.50
2023-05-19T21:17:35.657Z,13.50
2023-05-19T21:20:04.144Z,13.50
2023-05-19T21:22:32.463Z,13.40
2023-05-19T21:25:00.621Z,13.50
2023-05-19T21:27:28.806Z,13.30
2023-05-19T21:29:59.972Z,13.30
2023-05-19T21:32:30.279Z,13.30
2023-05-19T21:34:59.963Z,13.20
2023-05-19T21:37:28.215Z,13.20
2023-05-19T21:39:56.408Z,13.10
2023-05-19T21:42:24.880Z,13.10
2023-05-19T21:44:53.049Z,13.00
2023-05-19T21:47:21.203Z,13.00
2023-05-19T21:49:49.503Z,13.10
2023-05-19T21:52:19.538Z,13.20
2023-05-19T21:54:47.880Z,13.20
2023-05-19T21:57:16.058Z,13.20
2023-05-19T21:59:44.951Z,13.20
2023-05-19T22:02:13.800Z,13.10
2023-05-19T22:04:42.929Z,13.10
2023-05-19T22:07:11.059Z,13.00
2023-05-19T22:09:40.662Z,13.00
2023-05-19T22:12:09.397Z,13.00
2023-05-19T22:14:37.556Z,13.00
2023-05-19T22:17:06.275Z,13.00
2023-05-19T22:19:34.387Z,13.00
2023-05-19T22:22:13.170Z,12.90
2023-05-19T22:24:44.040Z,12.90
2023-05-19T22:27:12.229Z,12.80
2023-05-19T22:29:40.425Z,12.80
2023-05-19T22:32:12.052Z,12.80
2023-05-19T22:34:40.731Z,12.80
2023-05-19T22:37:09.031Z,12.70
2023-05-19T22:39:37.625Z,12.70
2023-05-19T22:42:07.639Z,12.70
2023-05-19T22:44:35.793Z,12.70
2023-05-19T22:47:04.044Z,12.60
2023-05-19T22:49:32.194Z,12.50
2023-05-19T22:52:03.033Z,12.50
2023-05-19T22:54:31.461Z,12.50
2023-05-19T22:56:59.635Z,12.50
2023-05-19T22:59:29.130Z,12.50
2023-05-19T23:01:57.269Z,12.40
2023-05-19T23:04:25.689Z,12.40
2023-05-19T23:06:56.109Z,12.40
2023-05-19T23:09:27.417Z,12.30
2023-05-19T23:11:57.910Z,12.30
2023-05-19T23:14:26.081Z,12.20
2023-05-19T23:16:55.924Z,12.20
2023-05-19T23:19:24.344Z,12.20
2023-05-19T23:21:52.641Z,12.10
2023-05-19T23:24:20.866Z,12.10
2023-05-19T23:26:48.986Z,12.00
2023-05-19T23:29:17.162Z,12.00
2023-05-19T23:31:45.388Z,12.10
2023-05-19T23:34:15.042Z,12.00
2023-05-19T23:36:43.154Z,12.00
2023-05-19T23:39:12.913Z,11.90
2023-05-19T23:41:41.014Z,11.80
2023-05-19T23:44:09.645Z,11.80
2023-05-19T23:46:37.951Z,11.70
2023-05-19T23:49:06.272Z,11.70
2023-05-19T23:51:38.676Z,11.70
2023-05-19T23:54:06.853Z,11.70
2023-05-19T23:56:34.930Z,11.60
2023-05-19T23:59:06.095Z,11.60
